Monday, December 22, 2014
07:02 UTC
  |  Log In   |  Register Free
Airport Search:

Visalia Municipal Airport
(KVIS)

Visalia Municipal Airport Diagram
No Airport Diagram Available

FAA data valid effective November 13, 2014 - January 08, 2015 (unless otherwise noted).

 
 
 
 
 
 
 
 
 
 
 
 
 
 

Current Aviation Weather for Visalia Municipal Airport (KVIS)

The most recent METAR observation for KVIS was updated at: 2122
METAR Summary (Translated METAR)
KVIS
182115Z AUTO 00000KT 10SM CLR 16/07 A3018 RMK AO1
KHJO
182053Z AUTO 23003KT 10SM CLR 14/07 A3018 RMK AO2 SLP222 T01440067 58013
(11.4 nm SW from KVIS)
KPTV
182115Z AUTO 00000KT 10SM CLR 15/05 A3016 RMK AO1
(23.6 nm SE from KVIS)
TAF Summary (Translated TAF)
KVIS
220524Z 2206/2306 VRB03KT 3SM BR SCT015 BKN030 FM220800 VRB03KT 1SM BR BKN007 FM220900 VRB03KT 1/4SM FG VV001 FM221800 VRB03KT 1SM BR OVC005 FM222200 VRB03KT 3SM BR SCT005 BKN015
  Airport Weather Conditions for KVIS

 Current Weather at VIS
55° F
Overcast
North winds at 0.0 mph
VIS NOAA Radar

Pressure: 30.27 in
Humidity: 82%
Wind: Calm
Dew Point: 50.0°F
Visibility: 1.75 mi


Airport Weather Forecast for KVIS

Translated METAR and TAF for KVIS
Translated METAR for KVIS (0703 UTC 22 December 2014)
found at http://aviationweather.gov/adds/metars/
 
METAR text: KVIS 220655Z AUTO 20004KT 2 1/2SM OVC004 13/10 A3027 RMK AO1
Conditions at: KVIS (VISALIA MUNI , CA, US) observed 0655 UTC 22 December 2014
Temperature: 13.0°C (55°F)
Dewpoint: 10.0°C (50°F) [RH = 82%]
Pressure (altimeter): 30.27 inches Hg (1025.1 mb)
Winds: from the SSW (200 degrees) at 5 MPH (4 knots; 2.1 m/s)
Visibility: 2.50 miles (4.02 km)
Ceiling: 400 feet AGL
Clouds: overcast cloud deck at 400 feet AGL
Weather: automated observation with no human augmentation;
there may or may not be significant weather present at this time
Translated TAF for KVIS
Forecast for: KVIS (VISALIA MUNI , CA, US)
TAF Text: KVIS 220524Z 2206/2306 VRB03KT 3SM BR SCT015 BKN030
Forecast period: 0600 to 0800 UTC 22 December 2014
Forecast type: FROM: standard forecast or significant change
Winds: variable direction winds at 3 MPH (3 knots; 1.6 m/s)
Visibility: 3 miles (5 km)
Ceiling: 3000 feet AGL
Clouds: scattered clouds at 1500 feet AGL
broken clouds at 3000 feet AGL
Weather: BR  (mist)
TAF Text: FM220800 VRB03KT 1SM BR BKN007
Forecast period: 0800 to 0900 UTC 22 December 2014
Forecast type: FROM: standard forecast or significant change
Winds: variable direction winds at 3 MPH (3 knots; 1.6 m/s)
Visibility: 1.00 miles (1.61 km)
Ceiling: 700 feet AGL
Clouds: broken clouds at 700 feet AGL
Weather: BR  (mist)
TAF Text: FM220900 VRB03KT 1/4SM FG VV001
Forecast period: 0900 to 1800 UTC 22 December 2014
Forecast type: FROM: standard forecast or significant change
Winds: variable direction winds at 3 MPH (3 knots; 1.6 m/s)
Visibility: 0.25 miles (0.40 km)
Ceiling: indefinite ceiling with vertical visibility of 100 feet AGL
Clouds: obscured sky
Weather: FG  (fog)
TAF Text: FM221800 VRB03KT 1SM BR OVC005
Forecast period: 1800 to 2200 UTC 22 December 2014
Forecast type: FROM: standard forecast or significant change
Winds: variable direction winds at 3 MPH (3 knots; 1.6 m/s)
Visibility: 1.00 miles (1.61 km)
Ceiling: 500 feet AGL
Clouds: overcast cloud deck at 500 feet AGL
Weather: BR  (mist)
TAF Text: FM222200 VRB03KT 3SM BR SCT005 BKN015
Forecast period: 2200 UTC 22 December 2014 to 0600 UTC 23 December 2014
Forecast type: FROM: standard forecast or significant change
Winds: variable direction winds at 3 MPH (3 knots; 1.6 m/s)
Visibility: 3 miles (5 km)
Ceiling: 1500 feet AGL
Clouds: scattered clouds at 500 feet AGL
broken clouds at 1500 feet AGL
Weather: BR  (mist)

Find All Airport Services Find A Hotel Find A Rental Car Find A Golf Course Find A Restaurant $100 Hamburger



FBO's on the Field
FBO Company Facility Photos Services Transportation Aviation Fuel Prices: Prices include tax
Catering Weather Repair Courtesy Rental Type 100LL JetA JetA+ MOGAS 8087
 
Add another FBO Facility Photos Catering Weather Repair Courtesy Rental Type 100LL JetA JetA+ MOGAS 8087
Services Transportation Aviation Fuel Prices: Prices include tax
There are no FBO's currently reporting fuel at VIS. List your FBO now


model-print
model-print
model-print
model-print